Greenspond, Canada
Current Conditions -  °F | °C
As of 1:00 AM on Thursday 23 Oct 2014 (Local Time) from CYQX Reporting Station
Broken Clouds Broken Clouds  
Wind Chill:   Ceiling: 3000
Heat Index:   Visibility: 20mi
Dew Point:   Wind: 3mph
Humidity: 87%   Direction: 120°ESE
Pressure: 30.43"   Gusts: NA
Location:  49.05°N, 53.58°W
Report Text: CYQX 230300Z 12003KT 20SM BKN030 05/03 A3043 RMK SC6 SLP312
Loading
Personal Weather Stations






























Interactive Weather Map
Tropical Storm Tracking
New forecast layout! Learn more

10-Day Weather Forecast

Advertisements
Track Severe Weather on mobile